Time;durP1;ratioP1;P1;durP2;ratioP2;P2;SDS_P1;SDS_P2;PMS_P1;PMS_P2;Temp;Humidity;BMP_temperature;BMP_pressure;BME280_temperature;BME280_humidity;BME280_pressure;Samples;Min_cycle;Max_cycle;Signal;HPM_P1;HPM_P2
2021/10/31 00:02:06;;;;;;;;;;;;;;;;;;5065602;28;20402;-51
2021/10/31 00:04:31;;;;;;;;;;;;;;;;;;5065973;28;20455;-49
2021/10/31 00:06:57;;;;;;;;;;;;;;;;;;5066067;28;19994;-50
2021/10/31 00:09:23;;;;;;;;;;;;;;;;;;5065692;28;19912;-50
2021/10/31 00:11:50;;;;;;;;;;;;;;;;;;5065795;28;20447;-49
2021/10/31 00:14:16;;;;;;;;;;;;;;;;;;5065563;28;19997;-51
2021/10/31 00:16:42;;;;;;;;;;;;;;;;;;5065876;28;19947;-49
2021/10/31 00:19:08;;;;;;;;;;;;;;;;;;5065377;28;19915;-49
2021/10/31 00:21:35;;;;;;;;;;;;;;;;;;5065454;28;19904;-50
2021/10/31 00:24:01;;;;;;;;;;;;;;;;;;5065697;28;19915;-48
2021/10/31 00:26:28;;;;;;;;;;;;;;;;;;5066426;28;20285;-51
2021/10/31 00:28:54;;;;;;;;;;;;;;;;;;5065627;28;19908;-51
2021/10/31 00:31:20;;;;;;;;;;;;;;;;;;5065819;28;19904;-51
2021/10/31 00:33:46;;;;;;;;;;;;;;;;;;5065424;28;19916;-52
2021/10/31 00:36:12;;;;;;;;;;;;;;;;;;5065059;28;19904;-48
2021/10/31 00:38:38;;;;;;;;;;;;;;;;;;5065623;28;19908;-48
2021/10/31 00:41:04;;;;;;;;;;;;;;;;;;5065375;28;19904;-46
2021/10/31 00:43:30;;;;;;;;;;;;;;;;;;5065440;28;20015;-48
2021/10/31 00:45:57;;;;;;;;;;;;;;;;;;5064596;28;19920;-48
2021/10/31 00:48:23;;;;;;;;;;;;;;;;;;5065116;28;19921;-49
2021/10/31 00:50:48;;;;;;;;;;;;;;;;;;5067135;28;19937;-51
2021/10/31 00:53:14;;;;;;;;;;;;;;;;;;5069678;28;19908;-50
2021/10/31 00:55:40;;;;;;;;;;;;;;;;;;5069494;28;19912;-49
2021/10/31 00:58:06;;;;;;;;;;;;;;;;;;5069279;28;19947;-49
2021/10/31 01:00:33;;;;;;;;;;;;;;;;;;5069445;28;19911;-51
2021/10/31 01:02:59;;;;;;;;;;;;;;;;;;5069005;28;19904;-51
2021/10/31 01:05:26;;;;;;;;;;;;;;;;;;5069766;28;19915;-51
2021/10/31 01:07:53;;;;;;;;;;;;;;;;;;5069026;28;19913;-51
2021/10/31 01:10:19;;;;;;;;;;;;;;;;;;5069253;28;20417;-49
2021/10/31 01:12:45;;;;;;;;;;;;;;;;;;5069043;28;19997;-47
2021/10/31 01:15:11;;;;;;;;;;;;;;;;;;5069046;28;20467;-50
2021/10/31 01:17:37;;;;;;;;;;;;;;;;;;5069222;28;20318;-51
2021/10/31 01:20:06;;;;;;;;;;;;;;;;;;5068365;28;19911;-49
2021/10/31 01:22:33;;;;;;;;;;;;;;;;;;5068883;28;19930;-47
2021/10/31 01:25:00;;;;;;;;;;;;;;;;;;5068947;28;19966;-49
2021/10/31 01:27:26;;;;;;;;;;;;;;;;;;5069407;28;20298;-50
2021/10/31 01:29:52;;;;;;;;;;;;;;;;;;5068605;28;19908;-48
2021/10/31 01:32:18;;;;;;;;;;;;;;;;;;5068751;28;19919;-49
2021/10/31 01:34:45;;;;;;;;;;;;;;;;;;5068537;28;20375;-51
2021/10/31 01:37:11;;;;;;;;;;;;;;;;;;5068559;28;19908;-49
2021/10/31 01:39:37;;;;;;;;;;;;;;;;;;5068442;28;20345;-48
2021/10/31 01:42:03;;;;;;;;;;;;;;;;;;5068319;28;19904;-52
2021/10/31 01:44:30;;;;;;;;;;;;;;;;;;5068720;28;19931;-47
2021/10/31 01:46:56;;;;;;;;;;;;;;;;;;5069143;28;19965;-50
2021/10/31 01:49:21;;;;;;;;;;;;;;;;;;5067357;28;19999;-51
2021/10/31 01:51:47;;;;;;;;;;;;;;;;;;5068353;28;19910;-49
2021/10/31 01:54:13;;;;;;;;;;;;;;;;;;5068166;28;20295;-47
2021/10/31 01:56:39;;;;;;;;;;;;;;;;;;5068149;28;19958;-48
2021/10/31 01:59:06;;;;;;;;;;;;;;;;;;5067904;28;20007;-48
2021/10/31 02:01:31;;;;;;;;;;;;;;;;;;5067215;28;19908;-51
2021/10/31 02:03:59;;;;;;;;;;;;;;;;;;5068031;28;19905;-49
2021/10/31 02:06:24;;;;;;;;;;;;;;;;;;5068827;28;19915;-48
2021/10/31 02:08:51;;;;;;;;;;;;;;;;;;5068216;28;19909;-51
2021/10/31 02:11:17;;;;;;;;;;;;;;;;;;5066217;28;20042;-50
2021/10/31 02:13:46;;;;;;;;;;;;;;;;;;5068031;28;20439;-50
2021/10/31 02:16:13;;;;;;;;;;;;;;;;;;5067897;28;19901;-49
2021/10/31 02:18:39;;;;;;;;;;;;;;;;;;5067676;28;19993;-48
2021/10/31 02:21:06;;;;;;;;;;;;;;;;;;5067616;28;19950;-48
2021/10/31 02:23:32;;;;;;;;;;;;;;;;;;5068236;28;19931;-51
2021/10/31 02:25:58;;;;;;;;;;;;;;;;;;5068181;28;20371;-49
2021/10/31 02:28:26;;;;;;;;;;;;;;;;;;5068125;28;19935;-50
2021/10/31 02:30:52;;;;;;;;;;;;;;;;;;5067625;28;19916;-51
2021/10/31 02:33:17;;;;;;;;;;;;;;;;;;5067183;28;19964;-50
2021/10/31 02:35:43;;;;;;;;;;;;;;;;;;5067753;28;19955;-51
2021/10/31 02:38:10;;;;;;;;;;;;;;;;;;5067291;28;19904;-49
2021/10/31 02:40:36;;;;;;;;;;;;;;;;;;5067579;28;19913;-51
2021/10/31 02:43:02;;;;;;;;;;;;;;;;;;5067268;28;19904;-49
2021/10/31 02:45:28;;;;;;;;;;;;;;;;;;5068016;28;20363;-51
2021/10/31 02:47:54;;;;;;;;;;;;;;;;;;5067550;28;19912;-51
2021/10/31 02:50:20;;;;;;;;;;;;;;;;;;5066521;28;19918;-49
2021/10/31 02:52:47;;;;;;;;;;;;;;;;;;5066974;28;19912;-51
2021/10/31 02:55:13;;;;;;;;;;;;;;;;;;5066945;28;19904;-50
2021/10/31 02:57:38;;;;;;;;;;;;;;;;;;5067097;28;19950;-50
2021/10/31 03:00:05;;;;;;;;;;;;;;;;;;5066661;28;20011;-50
2021/10/31 03:02:32;;;;;;;;;;;;;;;;;;5066857;28;19945;-49
2021/10/31 03:04:59;;;;;;;;;;;;;;;;;;5067119;28;19927;-51
2021/10/31 03:07:24;;;;;;;;;;;;;;;;;;5067615;28;20175;-50
2021/10/31 03:09:50;;;;;;;;;;;;;;;;;;5066774;28;20268;-50
2021/10/31 03:12:16;;;;;;;;;;;;;;;;;;5066559;28;19912;-48
2021/10/31 03:14:43;;;;;;;;;;;;;;;;;;5066284;28;19911;-50
2021/10/31 03:17:09;;;;;;;;;;;;;;;;;;5066383;28;19944;-46
2021/10/31 03:19:38;;;;;;;;;;;;;;;;;;5066306;28;19951;-50
2021/10/31 03:22:04;;;;;;;;;;;;;;;;;;5066442;28;20299;-47
2021/10/31 03:24:30;;;;;;;;;;;;;;;;;;5066620;28;19908;-51
2021/10/31 03:26:56;;;;;;;;;;;;;;;;;;5067376;28;19962;-51
2021/10/31 03:29:24;;;;;;;;;;;;;;;;;;5066234;28;20454;-50
2021/10/31 03:31:50;;;;;;;;;;;;;;;;;;5066840;28;19904;-48
2021/10/31 03:34:16;;;;;;;;;;;;;;;;;;5065889;28;19923;-48
2021/10/31 03:36:42;;;;;;;;;;;;;;;;;;5066279;28;20368;-48
2021/10/31 03:39:08;;;;;;;;;;;;;;;;;;5066260;28;19904;-46
2021/10/31 03:41:34;;;;;;;;;;;;;;;;;;5066343;28;19912;-47
2021/10/31 03:44:00;;;;;;;;;;;;;;;;;;5065884;28;19904;-48
2021/10/31 03:46:26;;;;;;;;;;;;;;;;;;5066920;28;20140;-49
2021/10/31 03:48:52;;;;;;;;;;;;;;;;;;5065484;28;19908;-49
2021/10/31 03:51:18;;;;;;;;;;;;;;;;;;5065528;28;20387;-50
2021/10/31 03:53:44;;;;;;;;;;;;;;;;;;5066052;28;19904;-48
2021/10/31 03:56:10;;;;;;;;;;;;;;;;;;5065957;28;19905;-49
2021/10/31 03:58:36;;;;;;;;;;;;;;;;;;5065970;28;20315;-48
2021/10/31 04:01:02;;;;;;;;;;;;;;;;;;5065639;28;19908;-50
2021/10/31 04:03:29;;;;;;;;;;;;;;;;;;5066184;28;19912;-48
2021/10/31 04:05:55;;;;;;;;;;;;;;;;;;5066708;28;19908;-46
2021/10/31 04:08:20;;;;;;;;;;;;;;;;;;5065966;28;20410;-49
2021/10/31 04:10:46;;;;;;;;;;;;;;;;;;5065585;28;19998;-50
2021/10/31 04:13:12;;;;;;;;;;;;;;;;;;5065755;28;20367;-50
2021/10/31 04:15:38;;;;;;;;;;;;;;;;;;5065912;28;20257;-48
2021/10/31 04:18:04;;;;;;;;;;;;;;;;;;5065787;28;19905;-47
2021/10/31 04:20:30;;;;;;;;;;;;;;;;;;5065611;28;20390;-50
2021/10/31 04:22:56;;;;;;;;;;;;;;;;;;5066547;28;19908;-49
2021/10/31 04:25:22;;;;;;;;;;;;;;;;;;5065302;28;19946;-48
2021/10/31 04:27:48;;;;;;;;;;;;;;;;;;5065185;28;19904;-49
2021/10/31 04:30:14;;;;;;;;;;;;;;;;;;5065155;28;19908;-50
2021/10/31 04:32:40;;;;;;;;;;;;;;;;;;5065370;28;19946;-49
2021/10/31 04:35:06;;;;;;;;;;;;;;;;;;5065287;28;19904;-46
2021/10/31 04:37:35;;;;;;;;;;;;;;;;;;5065709;28;20117;-48
2021/10/31 04:40:04;;;;;;;;;;;;;;;;;;5065494;28;19908;-48
2021/10/31 04:42:31;;;;;;;;;;;;;;;;;;5065390;28;20394;-49
2021/10/31 04:44:57;;;;;;;;;;;;;;;;;;5065785;28;20343;-49
2021/10/31 04:47:23;;;;;;;;;;;;;;;;;;5065317;28;19998;-49
2021/10/31 04:49:49;;;;;;;;;;;;;;;;;;5064926;28;19999;-50
2021/10/31 04:52:16;;;;;;;;;;;;;;;;;;5065182;28;19909;-47
2021/10/31 04:54:42;;;;;;;;;;;;;;;;;;5063863;28;20442;-50
2021/10/31 04:57:09;;;;;;;;;;;;;;;;;;5065181;28;19963;-49
2021/10/31 04:59:35;;;;;;;;;;;;;;;;;;5064018;28;19942;-51
2021/10/31 05:02:01;;;;;;;;;;;;;;;;;;5064999;28;19987;-50
2021/10/31 05:04:27;;;;;;;;;;;;;;;;;;5065883;28;19915;-49
2021/10/31 05:06:53;;;;;;;;;;;;;;;;;;5065342;28;19911;-51
2021/10/31 05:09:19;;;;;;;;;;;;;;;;;;5064702;28;20418;-50
2021/10/31 05:11:45;;;;;;;;;;;;;;;;;;5065130;28;19953;-50
2021/10/31 05:14:11;;;;;;;;;;;;;;;;;;5065096;28;20283;-48
2021/10/31 05:16:37;;;;;;;;;;;;;;;;;;5064728;28;19916;-48
2021/10/31 05:19:03;;;;;;;;;;;;;;;;;;5065060;28;19905;-50
2021/10/31 05:21:30;;;;;;;;;;;;;;;;;;5065195;28;19920;-50
2021/10/31 05:23:56;;;;;;;;;;;;;;;;;;5065630;28;20495;-46
2021/10/31 05:26:21;;;;;;;;;;;;;;;;;;5078290;28;19954;-50
2021/10/31 05:28:48;;;;;;;;;;;;;;;;;;5085595;28;19919;-48
2021/10/31 05:31:14;;;;;;;;;;;;;;;;;;5069193;28;20395;-49
2021/10/31 05:33:41;;;;;;;;;;;;;;;;;;5065129;28;19904;-52
2021/10/31 05:36:07;;;;;;;;;;;;;;;;;;5065593;28;20330;-51
2021/10/31 05:38:33;;;;;;;;;;;;;;;;;;5069606;28;19905;-48
2021/10/31 05:41:03;;;;;;;;;;;;;;;;;;5068099;28;19945;-48
2021/10/31 05:43:30;;;;;;;;;;;;;;;;;;5068816;28;19912;-50
2021/10/31 05:45:55;;;;;;;;;;;;;;;;;;5068296;28;19917;-47
2021/10/31 05:48:21;;;;;;;;;;;;;;;;;;5067846;28;20443;-47
2021/10/31 05:50:47;;;;;;;;;;;;;;;;;;5068485;28;19909;-48
2021/10/31 05:53:13;;;;;;;;;;;;;;;;;;5068452;28;20264;-49
2021/10/31 05:55:39;;;;;;;;;;;;;;;;;;5068356;28;19904;-50
2021/10/31 05:58:05;;;;;;;;;;;;;;;;;;5068351;28;19915;-47
2021/10/31 06:00:31;;;;;;;;;;;;;;;;;;5068667;28;20371;-51
2021/10/31 06:02:57;;;;;;;;;;;;;;;;;;5068369;28;19909;-49
2021/10/31 06:05:24;;;;;;;;;;;;;;;;;;5068548;28;19915;-49
2021/10/31 06:07:49;;;;;;;;;;;;;;;;;;5068175;28;19908;-48
2021/10/31 06:10:15;;;;;;;;;;;;;;;;;;5067543;28;20626;-49
2021/10/31 06:12:41;;;;;;;;;;;;;;;;;;5067937;28;19904;-50
2021/10/31 06:15:08;;;;;;;;;;;;;;;;;;5067858;28;19904;-49
2021/10/31 06:17:34;;;;;;;;;;;;;;;;;;5068549;28;19950;-50
2021/10/31 06:20:00;;;;;;;;;;;;;;;;;;5068206;28;19904;-50
2021/10/31 06:22:26;;;;;;;;;;;;;;;;;;5067932;28;19908;-50
2021/10/31 06:24:52;;;;;;;;;;;;;;;;;;5067833;28;19905;-48
2021/10/31 06:27:18;;;;;;;;;;;;;;;;;;5067424;28;19939;-51
2021/10/31 06:29:43;;;;;;;;;;;;;;;;;;5067568;28;19908;-49
2021/10/31 06:32:10;;;;;;;;;;;;;;;;;;5067422;28;20414;-47
2021/10/31 06:34:36;;;;;;;;;;;;;;;;;;5067624;28;20268;-47
2021/10/31 06:37:03;;;;;;;;;;;;;;;;;;5068045;28;19911;-48
2021/10/31 06:39:30;;;;;;;;;;;;;;;;;;5067852;28;19999;-48
2021/10/31 06:41:57;;;;;;;;;;;;;;;;;;5067494;28;20343;-46
2021/10/31 06:44:23;;;;;;;;;;;;;;;;;;5067443;28;19908;-50
2021/10/31 06:46:51;;;;;;;;;;;;;;;;;;5067258;28;19912;-49
2021/10/31 06:49:18;;;;;;;;;;;;;;;;;;5069701;28;19955;-51
2021/10/31 06:51:44;;;;;;;;;;;;;;;;;;5078521;28;20379;-49
2021/10/31 06:54:10;;;;;;;;;;;;;;;;;;5068275;28;20007;-49
2021/10/31 06:56:36;;;;;;;;;;;;;;;;;;5067977;28;19913;-47
2021/10/31 06:59:02;;;;;;;;;;;;;;;;;;5085978;28;20394;-48
2021/10/31 07:01:28;;;;;;;;;;;;;;;;;;5085660;28;19908;-48
2021/10/31 07:03:54;;;;;;;;;;;;;;;;;;5087286;28;19908;-49
2021/10/31 07:06:20;;;;;;;;;;;;;;;;;;5087003;28;20001;-49
2021/10/31 07:08:47;;;;;;;;;;;;;;;;;;5087287;28;19938;-52
2021/10/31 07:11:14;;;;;;;;;;;;;;;;;;5086537;28;19964;-47
2021/10/31 07:13:40;;;;;;;;;;;;;;;;;;5087122;28;19908;-49
2021/10/31 07:16:06;;;;;;;;;;;;;;;;;;5086834;28;19915;-50
2021/10/31 07:18:32;;;;;;;;;;;;;;;;;;5087493;28;19904;-50
2021/10/31 07:20:58;;;;;;;;;;;;;;;;;;5086589;28;19908;-52
2021/10/31 07:23:24;;;;;;;;;;;;;;;;;;5084999;28;19974;-51
2021/10/31 07:25:51;;;;;;;;;;;;;;;;;;5086984;28;19908;-51
2021/10/31 07:28:17;;;;;;;;;;;;;;;;;;5085695;28;19920;-47
2021/10/31 07:30:43;;;;;;;;;;;;;;;;;;5086728;28;20337;-51
2021/10/31 07:33:10;;;;;;;;;;;;;;;;;;5086632;28;19954;-47
2021/10/31 07:35:37;;;;;;;;;;;;;;;;;;5086837;28;19912;-47
2021/10/31 07:38:04;;;;;;;;;;;;;;;;;;5086268;28;19950;-51
2021/10/31 07:40:30;;;;;;;;;;;;;;;;;;5086475;28;19912;-48
2021/10/31 07:42:59;;;;;;;;;;;;;;;;;;5086372;28;19908;-50
2021/10/31 07:45:25;;;;;;;;;;;;;;;;;;5086424;28;19904;-50
2021/10/31 07:47:53;;;;;;;;;;;;;;;;;;5086364;28;19904;-50
2021/10/31 07:50:19;;;;;;;;;;;;;;;;;;5085821;28;20526;-47
2021/10/31 07:52:45;;;;;;;;;;;;;;;;;;5087044;28;19904;-50
2021/10/31 07:55:14;;;;;;;;;;;;;;;;;;5086110;28;19950;-51
2021/10/31 07:57:43;;;;;;;;;;;;;;;;;;5086396;28;19931;-49
2021/10/31 08:00:10;;;;;;;;;;;;;;;;;;5085613;28;20413;-48
2021/10/31 08:02:36;;;;;;;;;;;;;;;;;;5086462;28;19912;-50
2021/10/31 08:05:02;;;;;;;;;;;;;;;;;;5081569;28;20013;-52
2021/10/31 08:07:30;;;;;;;;;;;;;;;;;;5070417;28;19904;-52
2021/10/31 08:09:57;;;;;;;;;;;;;;;;;;5083354;28;20562;-51
2021/10/31 08:12:23;;;;;;;;;;;;;;;;;;5081255;28;20270;-51
2021/10/31 08:14:49;;;;;;;;;;;;;;;;;;5074899;28;19904;-50
2021/10/31 08:17:16;;;;;;;;;;;;;;;;;;5066192;28;20287;-52
2021/10/31 08:19:41;;;;;;;;;;;;;;;;;;5065405;28;19991;-50
2021/10/31 08:22:07;;;;;;;;;;;;;;;;;;5065426;28;20404;-50
2021/10/31 08:24:33;;;;;;;;;;;;;;;;;;5064937;28;19909;-48
2021/10/31 08:27:00;;;;;;;;;;;;;;;;;;5065404;28;19981;-50
2021/10/31 08:29:26;;;;;;;;;;;;;;;;;;5065319;28;19965;-48
2021/10/31 08:31:55;;;;;;;;;;;;;;;;;;5066294;28;20321;-51
2021/10/31 08:34:21;;;;;;;;;;;;;;;;;;5064991;28;20135;-50
2021/10/31 08:36:47;;;;;;;;;;;;;;;;;;5066303;28;19904;-50
2021/10/31 08:39:13;;;;;;;;;;;;;;;;;;5064604;28;20340;-49
2021/10/31 08:41:39;;;;;;;;;;;;;;;;;;5065573;28;19912;-51
2021/10/31 08:44:06;;;;;;;;;;;;;;;;;;5064577;28;19912;-52
2021/10/31 08:46:32;;;;;;;;;;;;;;;;;;5065418;28;19904;-50
2021/10/31 08:48:58;;;;;;;;;;;;;;;;;;5064502;28;19914;-49
2021/10/31 08:51:25;;;;;;;;;;;;;;;;;;5065265;28;19922;-51
2021/10/31 08:53:52;;;;;;;;;;;;;;;;;;5064444;28;19923;-50
2021/10/31 08:56:18;;;;;;;;;;;;;;;;;;5068219;28;19909;-51
2021/10/31 08:58:44;;;;;;;;;;;;;;;;;;5077020;28;19938;-51
2021/10/31 09:01:10;;;;;;;;;;;;;;;;;;5064224;28;20325;-50
2021/10/31 09:03:36;;;;;;;;;;;;;;;;;;5067950;28;19959;-51
2021/10/31 09:06:02;;;;;;;;;;;;;;;;;;5073359;28;19935;-51
2021/10/31 09:08:29;;;;;;;;;;;;;;;;;;5065062;28;20011;-50
2021/10/31 09:10:55;;;;;;;;;;;;;;;;;;5068551;28;20291;-51
2021/10/31 09:13:21;;;;;;;;;;;;;;;;;;5077155;28;19969;-50
2021/10/31 09:15:48;;;;;;;;;;;;;;;;;;5082713;28;19963;-52
2021/10/31 09:18:15;;;;;;;;;;;;;;;;;;5076079;28;20407;-49
2021/10/31 09:20:40;;;;;;;;;;;;;;;;;;5080629;28;19908;-51
2021/10/31 09:23:07;;;;;;;;;;;;;;;;;;5082605;28;19915;-50
2021/10/31 09:25:33;;;;;;;;;;;;;;;;;;5088789;28;19915;-51
2021/10/31 09:28:01;;;;;;;;;;;;;;;;;;5083631;28;19907;-51
2021/10/31 09:30:28;;;;;;;;;;;;;;;;;;5078847;28;20209;-50
2021/10/31 09:32:54;;;;;;;;;;;;;;;;;;5080949;28;20282;-52
2021/10/31 09:35:20;;;;;;;;;;;;;;;;;;5078487;28;20309;-52
2021/10/31 09:37:48;;;;;;;;;;;;;;;;;;5081303;28;19912;-50
2021/10/31 09:40:14;;;;;;;;;;;;;;;;;;5089170;28;19908;-51
2021/10/31 09:42:40;;;;;;;;;;;;;;;;;;5081278;28;19912;-50
2021/10/31 09:45:06;;;;;;;;;;;;;;;;;;5069532;28;19995;-53
2021/10/31 09:47:32;;;;;;;;;;;;;;;;;;5082397;28;19999;-51
2021/10/31 09:49:59;;;;;;;;;;;;;;;;;;5081039;28;19966;-50
2021/10/31 09:52:25;;;;;;;;;;;;;;;;;;5079031;28;19915;-47
2021/10/31 09:54:51;;;;;;;;;;;;;;;;;;5069938;28;20002;-48
2021/10/31 09:57:17;;;;;;;;;;;;;;;;;;5087955;28;19908;-48
2021/10/31 09:59:49;;;;;;;;;;;;;;;;;;5084986;28;19915;-48
2021/10/31 10:02:25;;;;;;;;;;;;;;;;;;5077118;28;19918;-49
2021/10/31 10:04:53;;;;;;;;;;;;;;;;;;5074279;28;19951;-52
2021/10/31 10:07:21;;;;;;;;;;;;;;;;;;5083346;28;19935;-51
2021/10/31 10:09:46;;;;;;;;;;;;;;;;;;5076626;28;20613;-50
2021/10/31 10:12:13;;;;;;;;;;;;;;;;;;5081492;28;19939;-51
2021/10/31 10:14:39;;;;;;;;;;;;;;;;;;5088896;28;19962;-50
2021/10/31 10:17:05;;;;;;;;;;;;;;;;;;5077623;28;19911;-48
2021/10/31 10:19:31;;;;;;;;;;;;;;;;;;5089351;28;19904;-51
2021/10/31 10:21:57;;;;;;;;;;;;;;;;;;5088291;28;19977;-53
2021/10/31 10:24:23;;;;;;;;;;;;;;;;;;5088736;28;20393;-51
2021/10/31 10:26:50;;;;;;;;;;;;;;;;;;5078273;28;19947;-54
2021/10/31 10:29:16;;;;;;;;;;;;;;;;;;5087904;28;19929;-51
2021/10/31 10:31:42;;;;;;;;;;;;;;;;;;5075640;28;19912;-50
2021/10/31 10:34:08;;;;;;;;;;;;;;;;;;5074625;28;19908;-50
2021/10/31 10:36:34;;;;;;;;;;;;;;;;;;5068214;28;19909;-52
2021/10/31 10:39:00;;;;;;;;;;;;;;;;;;5081448;28;19908;-51
2021/10/31 10:41:26;;;;;;;;;;;;;;;;;;5089078;28;19923;-49
2021/10/31 10:43:52;;;;;;;;;;;;;;;;;;5084627;28;19908;-52
2021/10/31 10:46:18;;;;;;;;;;;;;;;;;;5088394;28;19923;-50
2021/10/31 10:48:44;;;;;;;;;;;;;;;;;;5088691;28;19912;-51
2021/10/31 10:51:10;;;;;;;;;;;;;;;;;;5071040;28;19997;-48
2021/10/31 10:53:36;;;;;;;;;;;;;;;;;;5068934;28;19912;-51
2021/10/31 10:56:02;;;;;;;;;;;;;;;;;;5068651;28;19908;-50
2021/10/31 10:58:28;;;;;;;;;;;;;;;;;;5080162;28;19915;-50
2021/10/31 11:00:54;;;;;;;;;;;;;;;;;;5078574;28;19914;-49
2021/10/31 11:03:20;;;;;;;;;;;;;;;;;;5085915;28;19912;-49
2021/10/31 11:05:46;;;;;;;;;;;;;;;;;;5082185;28;20007;-51
2021/10/31 11:08:12;;;;;;;;;;;;;;;;;;5079606;28;20006;-51
2021/10/31 11:10:38;;;;;;;;;;;;;;;;;;5085973;28;20524;-48
2021/10/31 11:13:04;;;;;;;;;;;;;;;;;;5083959;28;19907;-49
2021/10/31 11:15:30;;;;;;;;;;;;;;;;;;5085119;28;19923;-49
2021/10/31 11:17:56;;;;;;;;;;;;;;;;;;5080399;28;19912;-48
2021/10/31 11:20:22;;;;;;;;;;;;;;;;;;5067418;28;19915;-49
2021/10/31 11:22:48;;;;;;;;;;;;;;;;;;5087863;28;19933;-48
2021/10/31 11:25:14;;;;;;;;;;;;;;;;;;5067441;28;19961;-53
2021/10/31 11:27:40;;;;;;;;;;;;;;;;;;5087188;28;19915;-50
2021/10/31 11:30:06;;;;;;;;;;;;;;;;;;5080681;28;19916;-50
2021/10/31 11:32:32;;;;;;;;;;;;;;;;;;5072681;28;19954;-48
2021/10/31 11:34:58;;;;;;;;;;;;;;;;;;5079030;28;19962;-47
2021/10/31 11:37:24;;;;;;;;;;;;;;;;;;5085416;28;19914;-51
2021/10/31 11:39:50;;;;;;;;;;;;;;;;;;5087761;28;20010;-49
2021/10/31 11:42:16;;;;;;;;;;;;;;;;;;5086656;28;19925;-50
2021/10/31 11:44:42;;;;;;;;;;;;;;;;;;5088107;28;19957;-51
2021/10/31 11:47:08;;;;;;;;;;;;;;;;;;5081769;28;19911;-48
2021/10/31 11:49:34;;;;;;;;;;;;;;;;;;5087423;28;19912;-50
2021/10/31 11:52:00;;;;;;;;;;;;;;;;;;5087558;28;20023;-52
2021/10/31 11:54:26;;;;;;;;;;;;;;;;;;5085451;28;19920;-50
2021/10/31 11:56:52;;;;;;;;;;;;;;;;;;5078272;28;19909;-51
2021/10/31 11:59:18;;;;;;;;;;;;;;;;;;5068493;28;19912;-49
2021/10/31 12:01:45;;;;;;;;;;;;;;;;;;5073762;28;19927;-49
2021/10/31 12:04:11;;;;;;;;;;;;;;;;;;5076437;28;19912;-49
2021/10/31 12:06:37;;;;;;;;;;;;;;;;;;5084804;28;20593;-49
2021/10/31 12:09:03;;;;;;;;;;;;;;;;;;5080233;28;19919;-50
2021/10/31 12:11:29;;;;;;;;;;;;;;;;;;5067851;28;19912;-51
2021/10/31 12:13:55;;;;;;;;;;;;;;;;;;5087332;28;19961;-50
2021/10/31 12:16:21;;;;;;;;;;;;;;;;;;5086494;28;19908;-51
2021/10/31 12:18:47;;;;;;;;;;;;;;;;;;5085390;28;19940;-52
2021/10/31 12:21:13;;;;;;;;;;;;;;;;;;5086373;28;19908;-50
2021/10/31 12:23:39;;;;;;;;;;;;;;;;;;5072897;28;19962;-49
2021/10/31 12:26:05;;;;;;;;;;;;;;;;;;5064058;28;19912;-50
2021/10/31 12:28:32;;;;;;;;;;;;;;;;;;5066543;28;19985;-48
2021/10/31 12:30:58;;;;;;;;;;;;;;;;;;5076295;28;19909;-49
2021/10/31 12:33:24;;;;;;;;;;;;;;;;;;5075696;28;20391;-50
2021/10/31 12:35:54;;;;;;;;;;;;;;;;;;5076075;28;19912;-49
2021/10/31 12:38:20;;;;;;;;;;;;;;;;;;5067585;28;19912;-49
2021/10/31 12:40:46;;;;;;;;;;;;;;;;;;5083739;28;19912;-51
2021/10/31 12:43:12;;;;;;;;;;;;;;;;;;5086485;28;19946;-50
2021/10/31 12:45:38;;;;;;;;;;;;;;;;;;5085398;28;21252;-50
2021/10/31 12:48:04;;;;;;;;;;;;;;;;;;5079491;28;19908;-51
2021/10/31 12:50:30;;;;;;;;;;;;;;;;;;5065929;28;19920;-49
2021/10/31 12:52:56;;;;;;;;;;;;;;;;;;5066666;28;19941;-51
2021/10/31 12:55:23;;;;;;;;;;;;;;;;;;5083247;28;19908;-50
2021/10/31 12:57:49;;;;;;;;;;;;;;;;;;5074073;28;20593;-51
2021/10/31 13:00:15;;;;;;;;;;;;;;;;;;5077417;28;19947;-51
2021/10/31 13:02:41;;;;;;;;;;;;;;;;;;5073673;28;20008;-52
2021/10/31 13:05:08;;;;;;;;;;;;;;;;;;5069632;28;19923;-50
2021/10/31 13:07:34;;;;;;;;;;;;;;;;;;5076749;28;19961;-51
2021/10/31 13:10:00;;;;;;;;;;;;;;;;;;5068800;28;20422;-51
2021/10/31 13:12:26;;;;;;;;;;;;;;;;;;5085259;28;20003;-51
2021/10/31 13:14:52;;;;;;;;;;;;;;;;;;5085231;28;19904;-48
2021/10/31 13:17:18;;;;;;;;;;;;;;;;;;5086101;28;19911;-49
2021/10/31 13:19:46;;;;;;;;;;;;;;;;;;5081278;28;19912;-50
2021/10/31 13:22:12;;;;;;;;;;;;;;;;;;5085168;28;19936;-51
2021/10/31 13:24:38;;;;;;;;;;;;;;;;;;5069830;28;20409;-48
2021/10/31 13:27:04;;;;;;;;;;;;;;;;;;5064544;28;19905;-48
2021/10/31 13:29:30;;;;;;;;;;;;;;;;;;5064550;28;19945;-48
2021/10/31 13:31:56;;;;;;;;;;;;;;;;;;5065161;28;19959;-50
2021/10/31 13:34:21;;;;;;;;;;;;;;;;;;5064533;28;19914;-48
2021/10/31 13:36:47;;;;;;;;;;;;;;;;;;5065638;28;19910;-48
2021/10/31 13:39:13;;;;;;;;;;;;;;;;;;5064759;28;20382;-51
2021/10/31 13:41:41;;;;;;;;;;;;;;;;;;5065073;28;19950;-52
2021/10/31 13:44:07;;;;;;;;;;;;;;;;;;5071919;28;19916;-51
2021/10/31 13:46:34;;;;;;;;;;;;;;;;;;5064907;28;19909;-50
2021/10/31 13:49:00;;;;;;;;;;;;;;;;;;5064057;28;20395;-50
2021/10/31 13:51:26;;;;;;;;;;;;;;;;;;5081379;28;20259;-50
2021/10/31 13:53:52;;;;;;;;;;;;;;;;;;5082989;28;19908;-50
2021/10/31 13:56:18;;;;;;;;;;;;;;;;;;5085302;28;19905;-52
2021/10/31 13:58:43;;;;;;;;;;;;;;;;;;5088189;28;19904;-48
2021/10/31 14:01:10;;;;;;;;;;;;;;;;;;5082050;28;19908;-51
2021/10/31 14:03:37;;;;;;;;;;;;;;;;;;5068165;28;20436;-50
2021/10/31 14:06:04;;;;;;;;;;;;;;;;;;5067941;28;19940;-52
2021/10/31 14:08:31;;;;;;;;;;;;;;;;;;5067729;28;19916;-50
2021/10/31 14:10:58;;;;;;;;;;;;;;;;;;5086060;28;19912;-51
2021/10/31 14:13:24;;;;;;;;;;;;;;;;;;5088322;28;20286;-49
2021/10/31 14:15:50;;;;;;;;;;;;;;;;;;5086314;28;19908;-48
2021/10/31 14:18:17;;;;;;;;;;;;;;;;;;5081311;28;20434;-49
2021/10/31 14:20:43;;;;;;;;;;;;;;;;;;5086457;28;19908;-47
2021/10/31 14:23:10;;;;;;;;;;;;;;;;;;5087249;28;19904;-52
2021/10/31 14:25:36;;;;;;;;;;;;;;;;;;5071226;28;19916;-49
2021/10/31 14:28:02;;;;;;;;;;;;;;;;;;5070718;28;19999;-50
2021/10/31 14:30:29;;;;;;;;;;;;;;;;;;5065848;28;20306;-50
2021/10/31 14:32:55;;;;;;;;;;;;;;;;;;5075214;28;20358;-50
2021/10/31 14:35:21;;;;;;;;;;;;;;;;;;5074424;28;19965;-51
2021/10/31 14:37:47;;;;;;;;;;;;;;;;;;5075542;28;19975;-49
2021/10/31 14:40:13;;;;;;;;;;;;;;;;;;5078335;28;20307;-48
2021/10/31 14:42:39;;;;;;;;;;;;;;;;;;5074654;28;19908;-48
2021/10/31 14:45:05;;;;;;;;;;;;;;;;;;5076484;28;20379;-49
2021/10/31 14:47:31;;;;;;;;;;;;;;;;;;5073320;28;19912;-49
2021/10/31 14:49:57;;;;;;;;;;;;;;;;;;5077510;28;20216;-49
2021/10/31 14:52:23;;;;;;;;;;;;;;;;;;5069667;28;19951;-49
2021/10/31 14:54:52;;;;;;;;;;;;;;;;;;5075092;28;20283;-48
2021/10/31 14:59:54;;;;;;;;;;;;;;;;;;5081271;28;19912;-52
2021/10/31 15:02:20;;;;;;;;;;;;;;;;;;5075657;28;20393;-48
2021/10/31 15:04:46;;;;;;;;;;;;;;;;;;5073351;28;19995;-50
2021/10/31 15:07:13;;;;;;;;;;;;;;;;;;5069271;28;19908;-48
2021/10/31 15:09:39;;;;;;;;;;;;;;;;;;5077947;28;20001;-50
2021/10/31 15:12:05;;;;;;;;;;;;;;;;;;5085417;28;20474;-47
2021/10/31 15:14:32;;;;;;;;;;;;;;;;;;5082703;28;19912;-48
2021/10/31 15:16:58;;;;;;;;;;;;;;;;;;5072870;28;19908;-48
2021/10/31 15:19:24;;;;;;;;;;;;;;;;;;5066409;28;19908;-48
2021/10/31 15:21:50;;;;;;;;;;;;;;;;;;5082490;28;20460;-49
2021/10/31 15:24:17;;;;;;;;;;;;;;;;;;5074267;28;19923;-49
2021/10/31 15:26:45;;;;;;;;;;;;;;;;;;5071510;28;19909;-50
2021/10/31 15:29:11;;;;;;;;;;;;;;;;;;5069481;28;19955;-50
2021/10/31 15:31:38;;;;;;;;;;;;;;;;;;5075621;28;19954;-49
2021/10/31 15:34:05;;;;;;;;;;;;;;;;;;5070230;28;19908;-49
2021/10/31 15:36:31;;;;;;;;;;;;;;;;;;5079034;28;19991;-48
2021/10/31 15:38:58;;;;;;;;;;;;;;;;;;5073208;28;19999;-53
2021/10/31 15:41:24;;;;;;;;;;;;;;;;;;5073122;28;20456;-48
2021/10/31 15:43:53;;;;;;;;;;;;;;;;;;5081369;28;20307;-49
2021/10/31 15:46:20;;;;;;;;;;;;;;;;;;5074573;28;20409;-48
2021/10/31 15:48:46;;;;;;;;;;;;;;;;;;5071671;28;19921;-50
2021/10/31 15:51:12;;;;;;;;;;;;;;;;;;5072099;28;19920;-49
2021/10/31 15:53:39;;;;;;;;;;;;;;;;;;5077446;28;19909;-49
2021/10/31 15:56:05;;;;;;;;;;;;;;;;;;5083016;28;20007;-49
2021/10/31 15:58:31;;;;;;;;;;;;;;;;;;5081924;28;19912;-50
2021/10/31 16:00:57;;;;;;;;;;;;;;;;;;5065778;28;19915;-51
2021/10/31 16:03:27;;;;;;;;;;;;;;;;;;5071917;28;20315;-49
2021/10/31 16:05:53;;;;;;;;;;;;;;;;;;5081587;28;19908;-50
2021/10/31 16:08:19;;;;;;;;;;;;;;;;;;5082923;28;19909;-47
2021/10/31 16:10:45;;;;;;;;;;;;;;;;;;5081684;28;19946;-49
2021/10/31 16:13:11;;;;;;;;;;;;;;;;;;5079443;28;19916;-47
2021/10/31 16:15:37;;;;;;;;;;;;;;;;;;5079206;28;20341;-50
2021/10/31 16:18:03;;;;;;;;;;;;;;;;;;5070539;28;20326;-47
2021/10/31 16:20:29;;;;;;;;;;;;;;;;;;5065977;28;19991;-52
2021/10/31 16:22:55;;;;;;;;;;;;;;;;;;5079068;28;20002;-51
2021/10/31 16:25:26;;;;;;;;;;;;;;;;;;5075957;28;19912;-51
2021/10/31 16:27:52;;;;;;;;;;;;;;;;;;5065796;28;19926;-48
2021/10/31 16:30:18;;;;;;;;;;;;;;;;;;5072956;28;20481;-48
2021/10/31 16:32:44;;;;;;;;;;;;;;;;;;5083643;28;19910;-51
2021/10/31 16:35:10;;;;;;;;;;;;;;;;;;5073330;28;19908;-48
2021/10/31 16:37:36;;;;;;;;;;;;;;;;;;5064608;28;19917;-51
2021/10/31 16:40:03;;;;;;;;;;;;;;;;;;5081910;28;19915;-49
2021/10/31 16:42:31;;;;;;;;;;;;;;;;;;5071326;28;20364;-50